sensor_id;sensor_type;location;lat;lon;timestamp;temperature;humidity
72114;SHT31;59989;46.220;19.888;2023-08-07T00:00:05;16.51;85.07
72114;SHT31;59989;46.220;19.888;2023-08-07T00:03:10;16.44;85.46
72114;SHT31;59989;46.220;19.888;2023-08-07T00:06:13;16.38;85.34
72114;SHT31;59989;46.220;19.888;2023-08-07T00:09:16;16.29;85.99
72114;SHT31;59989;46.220;19.888;2023-08-07T00:12:18;16.24;85.41
72114;SHT31;59989;46.220;19.888;2023-08-07T00:15:21;16.20;85.43
72114;SHT31;59989;46.220;19.888;2023-08-07T00:18:24;16.10;86.39
72114;SHT31;59989;46.220;19.888;2023-08-07T00:21:27;16.03;86.26
72114;SHT31;59989;46.220;19.888;2023-08-07T00:24:29;15.90;85.84
72114;SHT31;59989;46.220;19.888;2023-08-07T00:27:32;15.86;86.86
72114;SHT31;59989;46.220;19.888;2023-08-07T00:30:34;15.79;87.33
72114;SHT31;59989;46.220;19.888;2023-08-07T00:33:36;15.74;87.73
72114;SHT31;59989;46.220;19.888;2023-08-07T00:36:39;15.70;87.42
72114;SHT31;59989;46.220;19.888;2023-08-07T00:39:42;15.71;87.57
72114;SHT31;59989;46.220;19.888;2023-08-07T00:42:45;15.64;87.82
72114;SHT31;59989;46.220;19.888;2023-08-07T00:45:49;15.60;87.57
72114;SHT31;59989;46.220;19.888;2023-08-07T00:48:52;15.57;87.75
72114;SHT31;59989;46.220;19.888;2023-08-07T00:51:55;15.52;87.59
72114;SHT31;59989;46.220;19.888;2023-08-07T00:54:58;15.60;86.38
72114;SHT31;59989;46.220;19.888;2023-08-07T00:58:01;15.77;84.91
72114;SHT31;59989;46.220;19.888;2023-08-07T01:01:05;15.89;84.52
72114;SHT31;59989;46.220;19.888;2023-08-07T01:04:07;15.93;84.67
72114;SHT31;59989;46.220;19.888;2023-08-07T01:07:10;15.96;84.50
72114;SHT31;59989;46.220;19.888;2023-08-07T01:10:13;16.00;85.22
72114;SHT31;59989;46.220;19.888;2023-08-07T01:13:24;15.96;85.06
72114;SHT31;59989;46.220;19.888;2023-08-07T01:19:39;16.00;85.28
72114;SHT31;59989;46.220;19.888;2023-08-07T01:22:43;15.96;85.24
72114;SHT31;59989;46.220;19.888;2023-08-07T01:25:45;15.97;85.55
72114;SHT31;59989;46.220;19.888;2023-08-07T01:29:15;15.89;84.95
72114;SHT31;59989;46.220;19.888;2023-08-07T01:35:56;15.90;85.87
72114;SHT31;59989;46.220;19.888;2023-08-07T01:39:01;15.96;85.59
72114;SHT31;59989;46.220;19.888;2023-08-07T01:42:06;15.96;84.86
72114;SHT31;59989;46.220;19.888;2023-08-07T01:45:10;15.96;84.97
72114;SHT31;59989;46.220;19.888;2023-08-07T01:48:12;15.89;85.22
72114;SHT31;59989;46.220;19.888;2023-08-07T01:51:15;15.82;85.78
72114;SHT31;59989;46.220;19.888;2023-08-07T01:54:18;15.73;85.89
72114;SHT31;59989;46.220;19.888;2023-08-07T01:57:20;15.73;85.79
72114;SHT31;59989;46.220;19.888;2023-08-07T02:00:23;15.77;85.37
72114;SHT31;59989;46.220;19.888;2023-08-07T02:03:25;15.80;85.53
72114;SHT31;59989;46.220;19.888;2023-08-07T02:06:28;15.82;85.61
72114;SHT31;59989;46.220;19.888;2023-08-07T02:09:31;15.84;86.08
72114;SHT31;59989;46.220;19.888;2023-08-07T02:12:33;15.83;85.87
72114;SHT31;59989;46.220;19.888;2023-08-07T02:15:36;15.83;85.86
72114;SHT31;59989;46.220;19.888;2023-08-07T02:18:38;15.77;84.98
72114;SHT31;59989;46.220;19.888;2023-08-07T02:21:41;15.71;85.19
72114;SHT31;59989;46.220;19.888;2023-08-07T02:24:43;15.62;86.42
72114;SHT31;59989;46.220;19.888;2023-08-07T02:27:47;15.62;86.34
72114;SHT31;59989;46.220;19.888;2023-08-07T02:30:49;15.59;85.52
72114;SHT31;59989;46.220;19.888;2023-08-07T02:33:54;15.38;85.93
72114;SHT31;59989;46.220;19.888;2023-08-07T02:36:56;15.25;86.51
72114;SHT31;59989;46.220;19.888;2023-08-07T02:39:59;15.14;87.22
72114;SHT31;59989;46.220;19.888;2023-08-07T02:43:01;15.05;87.50
72114;SHT31;59989;46.220;19.888;2023-08-07T02:46:04;15.02;87.92
72114;SHT31;59989;46.220;19.888;2023-08-07T02:49:07;14.95;88.30
72114;SHT31;59989;46.220;19.888;2023-08-07T02:52:09;15.01;89.14
72114;SHT31;59989;46.220;19.888;2023-08-07T02:55:12;14.91;88.33
72114;SHT31;59989;46.220;19.888;2023-08-07T02:58:14;14.92;89.08
72114;SHT31;59989;46.220;19.888;2023-08-07T03:01:17;14.87;89.32
72114;SHT31;59989;46.220;19.888;2023-08-07T03:04:20;14.77;89.84
72114;SHT31;59989;46.220;19.888;2023-08-07T03:07:22;14.74;89.56
72114;SHT31;59989;46.220;19.888;2023-08-07T03:10:25;14.66;89.85
72114;SHT31;59989;46.220;19.888;2023-08-07T03:13:28;14.56;90.15
72114;SHT31;59989;46.220;19.888;2023-08-07T03:16:31;14.50;90.54
72114;SHT31;59989;46.220;19.888;2023-08-07T03:19:33;14.46;91.09
72114;SHT31;59989;46.220;19.888;2023-08-07T03:22:36;14.36;90.90
72114;SHT31;59989;46.220;19.888;2023-08-07T03:25:38;14.43;91.94
72114;SHT31;59989;46.220;19.888;2023-08-07T03:28:41;14.50;92.07
72114;SHT31;59989;46.220;19.888;2023-08-07T03:31:44;14.47;92.29
72114;SHT31;59989;46.220;19.888;2023-08-07T03:34:47;14.41;92.32
72114;SHT31;59989;46.220;19.888;2023-08-07T03:37:50;14.28;91.71
72114;SHT31;59989;46.220;19.888;2023-08-07T03:40:52;14.22;91.98
72114;SHT31;59989;46.220;19.888;2023-08-07T03:43:55;14.19;91.79
72114;SHT31;59989;46.220;19.888;2023-08-07T03:46:58;14.23;92.73
72114;SHT31;59989;46.220;19.888;2023-08-07T03:50:01;14.29;92.82
72114;SHT31;59989;46.220;19.888;2023-08-07T03:53:05;14.29;92.51
72114;SHT31;59989;46.220;19.888;2023-08-07T03:56:14;14.36;92.80
72114;SHT31;59989;46.220;19.888;2023-08-07T03:59:17;14.39;92.77
72114;SHT31;59989;46.220;19.888;2023-08-07T04:02:20;14.43;92.50
72114;SHT31;59989;46.220;19.888;2023-08-07T04:05:23;14.34;91.80
72114;SHT31;59989;46.220;19.888;2023-08-07T04:08:25;14.30;91.38
72114;SHT31;59989;46.220;19.888;2023-08-07T04:11:28;14.34;91.99
72114;SHT31;59989;46.220;19.888;2023-08-07T04:14:30;14.44;92.21
72114;SHT31;59989;46.220;19.888;2023-08-07T04:17:33;14.56;91.17
72114;SHT31;59989;46.220;19.888;2023-08-07T04:20:36;14.56;90.26
72114;SHT31;59989;46.220;19.888;2023-08-07T04:23:39;14.57;89.90
72114;SHT31;59989;46.220;19.888;2023-08-07T04:26:44;14.61;90.88
72114;SHT31;59989;46.220;19.888;2023-08-07T04:29:47;14.78;91.04
72114;SHT31;59989;46.220;19.888;2023-08-07T04:32:49;14.98;90.14
72114;SHT31;59989;46.220;19.888;2023-08-07T04:35:52;15.15;89.58
72114;SHT31;59989;46.220;19.888;2023-08-07T04:38:54;15.24;89.16
72114;SHT31;59989;46.220;19.888;2023-08-07T04:41:58;15.31;89.37
72114;SHT31;59989;46.220;19.888;2023-08-07T04:45:00;15.32;88.90
72114;SHT31;59989;46.220;19.888;2023-08-07T04:48:03;15.32;88.44
72114;SHT31;59989;46.220;19.888;2023-08-07T04:51:05;15.31;88.91
72114;SHT31;59989;46.220;19.888;2023-08-07T04:54:08;15.36;88.88
72114;SHT31;59989;46.220;19.888;2023-08-07T04:57:11;15.35;88.07
72114;SHT31;59989;46.220;19.888;2023-08-07T05:00:15;15.45;87.86
72114;SHT31;59989;46.220;19.888;2023-08-07T05:03:17;15.46;87.77
72114;SHT31;59989;46.220;19.888;2023-08-07T05:06:21;15.56;87.87
72114;SHT31;59989;46.220;19.888;2023-08-07T05:09:23;15.74;86.11
72114;SHT31;59989;46.220;19.888;2023-08-07T05:12:26;15.86;86.09
72114;SHT31;59989;46.220;19.888;2023-08-07T05:15:28;16.04;87.08
72114;SHT31;59989;46.220;19.888;2023-08-07T05:18:32;16.31;86.60
72114;SHT31;59989;46.220;19.888;2023-08-07T05:21:35;16.53;85.03
72114;SHT31;59989;46.220;19.888;2023-08-07T05:24:38;16.66;83.85
72114;SHT31;59989;46.220;19.888;2023-08-07T05:27:42;16.84;83.13
72114;SHT31;59989;46.220;19.888;2023-08-07T05:30:45;16.99;82.02
72114;SHT31;59989;46.220;19.888;2023-08-07T05:33:47;17.09;82.24
72114;SHT31;59989;46.220;19.888;2023-08-07T05:36:50;17.20;81.01
72114;SHT31;59989;46.220;19.888;2023-08-07T05:39:52;17.44;78.30
72114;SHT31;59989;46.220;19.888;2023-08-07T05:42:55;17.57;78.98
72114;SHT31;59989;46.220;19.888;2023-08-07T05:45:57;17.67;76.16
72114;SHT31;59989;46.220;19.888;2023-08-07T05:49:01;17.78;76.84
72114;SHT31;59989;46.220;19.888;2023-08-07T05:52:04;17.88;77.22
72114;SHT31;59989;46.220;19.888;2023-08-07T05:55:08;17.99;74.27
72114;SHT31;59989;46.220;19.888;2023-08-07T05:58:10;18.02;73.10
72114;SHT31;59989;46.220;19.888;2023-08-07T06:01:13;18.17;72.21
72114;SHT31;59989;46.220;19.888;2023-08-07T06:04:21;18.26;74.16
72114;SHT31;59989;46.220;19.888;2023-08-07T06:07:23;18.22;72.38
72114;SHT31;59989;46.220;19.888;2023-08-07T06:10:26;18.33;69.98
72114;SHT31;59989;46.220;19.888;2023-08-07T06:13:29;18.36;68.54
72114;SHT31;59989;46.220;19.888;2023-08-07T06:16:37;18.38;69.44
72114;SHT31;59989;46.220;19.888;2023-08-07T06:19:40;18.57;68.42
72114;SHT31;59989;46.220;19.888;2023-08-07T06:22:43;18.68;67.91
72114;SHT31;59989;46.220;19.888;2023-08-07T06:25:45;18.81;67.69
72114;SHT31;59989;46.220;19.888;2023-08-07T06:28:48;18.98;68.52
72114;SHT31;59989;46.220;19.888;2023-08-07T06:31:50;19.11;68.53
72114;SHT31;59989;46.220;19.888;2023-08-07T06:34:54;19.15;66.11
72114;SHT31;59989;46.220;19.888;2023-08-07T06:37:56;19.32;66.61
72114;SHT31;59989;46.220;19.888;2023-08-07T06:40:59;19.51;65.02
72114;SHT31;59989;46.220;19.888;2023-08-07T06:44:01;19.66;65.08
72114;SHT31;59989;46.220;19.888;2023-08-07T06:47:04;19.90;64.71
72114;SHT31;59989;46.220;19.888;2023-08-07T06:50:06;19.85;65.26
72114;SHT31;59989;46.220;19.888;2023-08-07T06:53:09;19.69;63.18
72114;SHT31;59989;46.220;19.888;2023-08-07T06:56:12;19.85;65.15
72114;SHT31;59989;46.220;19.888;2023-08-07T06:59:14;19.66;64.68
72114;SHT31;59989;46.220;19.888;2023-08-07T07:02:17;19.47;65.69
72114;SHT31;59989;46.220;19.888;2023-08-07T07:05:19;19.24;66.78
72114;SHT31;59989;46.220;19.888;2023-08-07T07:08:22;19.12;63.93
72114;SHT31;59989;46.220;19.888;2023-08-07T07:11:25;19.34;63.24
72114;SHT31;59989;46.220;19.888;2023-08-07T07:14:28;19.91;64.22
72114;SHT31;59989;46.220;19.888;2023-08-07T07:17:30;20.38;61.39
72114;SHT31;59989;46.220;19.888;2023-08-07T07:20:33;20.79;63.46
72114;SHT31;59989;46.220;19.888;2023-08-07T07:23:36;21.20;62.45
72114;SHT31;59989;46.220;19.888;2023-08-07T07:26:38;21.25;61.23
72114;SHT31;59989;46.220;19.888;2023-08-07T07:29:41;21.23;61.08
72114;SHT31;59989;46.220;19.888;2023-08-07T07:32:43;21.28;59.70
72114;SHT31;59989;46.220;19.888;2023-08-07T07:35:46;21.56;61.79
72114;SHT31;59989;46.220;19.888;2023-08-07T07:38:49;21.58;60.57
72114;SHT31;59989;46.220;19.888;2023-08-07T07:41:51;21.96;57.95
72114;SHT31;59989;46.220;19.888;2023-08-07T07:44:54;22.04;58.17
72114;SHT31;59989;46.220;19.888;2023-08-07T07:47:57;22.06;60.13
72114;SHT31;59989;46.220;19.888;2023-08-07T07:51:02;22.37;56.33
72114;SHT31;59989;46.220;19.888;2023-08-07T07:54:04;22.69;56.02
72114;SHT31;59989;46.220;19.888;2023-08-07T07:57:10;23.20;56.11
72114;SHT31;59989;46.220;19.888;2023-08-07T08:00:13;23.15;57.03
72114;SHT31;59989;46.220;19.888;2023-08-07T08:03:15;23.15;55.15
72114;SHT31;59989;46.220;19.888;2023-08-07T08:06:18;22.51;56.06
72114;SHT31;59989;46.220;19.888;2023-08-07T08:09:21;23.13;57.35
72114;SHT31;59989;46.220;19.888;2023-08-07T08:12:23;23.53;55.19
72114;SHT31;59989;46.220;19.888;2023-08-07T08:15:26;22.87;54.33
72114;SHT31;59989;46.220;19.888;2023-08-07T08:18:28;22.84;54.22
72114;SHT31;59989;46.220;19.888;2023-08-07T08:21:30;22.71;54.38
72114;SHT31;59989;46.220;19.888;2023-08-07T08:24:33;23.34;55.87
72114;SHT31;59989;46.220;19.888;2023-08-07T08:27:38;23.39;49.88
72114;SHT31;59989;46.220;19.888;2023-08-07T08:30:41;23.66;52.23
72114;SHT31;59989;46.220;19.888;2023-08-07T08:33:44;23.26;55.54
72114;SHT31;59989;46.220;19.888;2023-08-07T08:36:47;22.91;55.91
72114;SHT31;59989;46.220;19.888;2023-08-07T08:39:50;23.20;54.01
72114;SHT31;59989;46.220;19.888;2023-08-07T08:42:55;23.03;54.82
72114;SHT31;59989;46.220;19.888;2023-08-07T08:46:00;22.92;51.06
72114;SHT31;59989;46.220;19.888;2023-08-07T08:49:04;22.91;54.53
72114;SHT31;59989;46.220;19.888;2023-08-07T08:52:07;22.78;54.90
72114;SHT31;59989;46.220;19.888;2023-08-07T08:55:11;22.60;52.99
72114;SHT31;59989;46.220;19.888;2023-08-07T08:58:15;22.92;55.13
72114;SHT31;59989;46.220;19.888;2023-08-07T09:01:18;23.05;55.42
72114;SHT31;59989;46.220;19.888;2023-08-07T09:04:21;22.96;54.55
72114;SHT31;59989;46.220;19.888;2023-08-07T09:07:24;23.49;54.90
72114;SHT31;59989;46.220;19.888;2023-08-07T09:10:29;24.19;53.26
72114;SHT31;59989;46.220;19.888;2023-08-07T09:13:32;24.53;50.21
72114;SHT31;59989;46.220;19.888;2023-08-07T09:16:35;23.91;52.96
72114;SHT31;59989;46.220;19.888;2023-08-07T09:19:38;23.74;53.60
72114;SHT31;59989;46.220;19.888;2023-08-07T09:22:42;23.57;53.51
72114;SHT31;59989;46.220;19.888;2023-08-07T09:25:44;23.47;54.24
72114;SHT31;59989;46.220;19.888;2023-08-07T09:28:47;22.95;50.98
72114;SHT31;59989;46.220;19.888;2023-08-07T09:31:50;22.85;52.56
72114;SHT31;59989;46.220;19.888;2023-08-07T09:34:52;23.19;55.90
72114;SHT31;59989;46.220;19.888;2023-08-07T09:37:56;23.29;52.26
72114;SHT31;59989;46.220;19.888;2023-08-07T09:41:00;23.54;51.60
72114;SHT31;59989;46.220;19.888;2023-08-07T09:44:08;24.22;50.27
72114;SHT31;59989;46.220;19.888;2023-08-07T09:47:18;24.86;49.62
72114;SHT31;59989;46.220;19.888;2023-08-07T09:50:21;23.74;51.98
72114;SHT31;59989;46.220;19.888;2023-08-07T09:53:26;23.68;55.91
72114;SHT31;59989;46.220;19.888;2023-08-07T09:56:29;23.68;55.42
72114;SHT31;59989;46.220;19.888;2023-08-07T09:59:33;23.22;54.38
72114;SHT31;59989;46.220;19.888;2023-08-07T10:02:36;22.96;54.40
72114;SHT31;59989;46.220;19.888;2023-08-07T10:05:39;22.78;55.74
72114;SHT31;59989;46.220;19.888;2023-08-07T10:08:43;23.02;58.23
72114;SHT31;59989;46.220;19.888;2023-08-07T10:11:46;23.43;56.67
72114;SHT31;59989;46.220;19.888;2023-08-07T10:14:50;24.88;52.35
72114;SHT31;59989;46.220;19.888;2023-08-07T10:17:53;24.35;50.37
72114;SHT31;59989;46.220;19.888;2023-08-07T10:20:57;24.22;51.29
72114;SHT31;59989;46.220;19.888;2023-08-07T10:24:03;25.15;46.60
72114;SHT31;59989;46.220;19.888;2023-08-07T10:27:06;26.28;46.69
72114;SHT31;59989;46.220;19.888;2023-08-07T10:30:11;26.75;45.04
72114;SHT31;59989;46.220;19.888;2023-08-07T10:33:16;26.93;45.27
72114;SHT31;59989;46.220;19.888;2023-08-07T10:36:21;27.43;45.68
72114;SHT31;59989;46.220;19.888;2023-08-07T10:39:24;27.43;44.23
72114;SHT31;59989;46.220;19.888;2023-08-07T10:42:27;28.18;43.29
72114;SHT31;59989;46.220;19.888;2023-08-07T10:45:29;28.15;40.97
72114;SHT31;59989;46.220;19.888;2023-08-07T10:48:38;27.77;38.59
72114;SHT31;59989;46.220;19.888;2023-08-07T10:51:41;28.40;38.38
72114;SHT31;59989;46.220;19.888;2023-08-07T10:54:48;27.51;40.38
72114;SHT31;59989;46.220;19.888;2023-08-07T10:57:52;27.61;37.92
72114;SHT31;59989;46.220;19.888;2023-08-07T11:04:34;27.67;43.29
72114;SHT31;59989;46.220;19.888;2023-08-07T11:07:40;26.92;44.50
72114;SHT31;59989;46.220;19.888;2023-08-07T11:10:43;26.16;44.07
72114;SHT31;59989;46.220;19.888;2023-08-07T11:13:45;25.37;46.13
72114;SHT31;59989;46.220;19.888;2023-08-07T11:16:48;26.59;45.44
72114;SHT31;59989;46.220;19.888;2023-08-07T11:19:51;27.61;42.18
72114;SHT31;59989;46.220;19.888;2023-08-07T11:22:54;28.39;41.95
72114;SHT31;59989;46.220;19.888;2023-08-07T11:25:57;28.88;40.87
72114;SHT31;59989;46.220;19.888;2023-08-07T11:29:00;29.10;40.95
72114;SHT31;59989;46.220;19.888;2023-08-07T11:32:03;28.87;40.10
72114;SHT31;59989;46.220;19.888;2023-08-07T11:35:06;29.72;39.03
72114;SHT31;59989;46.220;19.888;2023-08-07T11:38:08;30.24;39.05
72114;SHT31;59989;46.220;19.888;2023-08-07T11:41:12;28.90;38.05
72114;SHT31;59989;46.220;19.888;2023-08-07T11:44:15;29.07;37.79
72114;SHT31;59989;46.220;19.888;2023-08-07T11:47:19;28.94;36.76
72114;SHT31;59989;46.220;19.888;2023-08-07T11:50:22;29.11;36.31
72114;SHT31;59989;46.220;19.888;2023-08-07T11:53:26;28.38;36.10
72114;SHT31;59989;46.220;19.888;2023-08-07T11:56:29;28.64;39.50
72114;SHT31;59989;46.220;19.888;2023-08-07T11:59:32;29.65;39.36
72114;SHT31;59989;46.220;19.888;2023-08-07T12:02:35;30.06;38.24
72114;SHT31;59989;46.220;19.888;2023-08-07T12:05:40;29.41;38.20
72114;SHT31;59989;46.220;19.888;2023-08-07T12:08:43;29.44;37.71
72114;SHT31;59989;46.220;19.888;2023-08-07T12:11:46;29.39;38.73
72114;SHT31;59989;46.220;19.888;2023-08-07T12:14:52;30.82;37.10
72114;SHT31;59989;46.220;19.888;2023-08-07T12:18:07;30.75;33.78
72114;SHT31;59989;46.220;19.888;2023-08-07T12:21:10;31.80;35.59
72114;SHT31;59989;46.220;19.888;2023-08-07T12:24:13;29.35;39.29
72114;SHT31;59989;46.220;19.888;2023-08-07T12:27:15;27.43;41.51
72114;SHT31;59989;46.220;19.888;2023-08-07T12:30:18;26.41;43.91
72114;SHT31;59989;46.220;19.888;2023-08-07T12:33:20;25.78;44.76
72114;SHT31;59989;46.220;19.888;2023-08-07T12:36:23;25.21;46.55
72114;SHT31;59989;46.220;19.888;2023-08-07T12:39:25;25.22;44.09
72114;SHT31;59989;46.220;19.888;2023-08-07T12:42:49;28.56;39.52
72114;SHT31;59989;46.220;19.888;2023-08-07T12:45:51;27.17;40.24
72114;SHT31;59989;46.220;19.888;2023-08-07T12:49:15;25.58;41.25
72114;SHT31;59989;46.220;19.888;2023-08-07T12:52:18;24.42;46.15
72114;SHT31;59989;46.220;19.888;2023-08-07T12:55:21;26.98;41.95
72114;SHT31;59989;46.220;19.888;2023-08-07T12:58:23;27.46;41.81
72114;SHT31;59989;46.220;19.888;2023-08-07T13:01:30;26.37;43.24
72114;SHT31;59989;46.220;19.888;2023-08-07T13:04:33;26.78;42.42
72114;SHT31;59989;46.220;19.888;2023-08-07T13:07:39;27.97;40.21
72114;SHT31;59989;46.220;19.888;2023-08-07T13:10:42;27.50;41.39
72114;SHT31;59989;46.220;19.888;2023-08-07T13:13:45;27.97;40.37
72114;SHT31;59989;46.220;19.888;2023-08-07T13:16:47;26.69;43.48
72114;SHT31;59989;46.220;19.888;2023-08-07T13:19:51;26.33;44.67
72114;SHT31;59989;46.220;19.888;2023-08-07T13:22:54;26.31;47.26
72114;SHT31;59989;46.220;19.888;2023-08-07T13:25:57;25.43;50.80
72114;SHT31;59989;46.220;19.888;2023-08-07T13:29:02;26.49;49.22
72114;SHT31;59989;46.220;19.888;2023-08-07T13:32:05;26.34;49.73
72114;SHT31;59989;46.220;19.888;2023-08-07T13:35:11;26.21;50.02
72114;SHT31;59989;46.220;19.888;2023-08-07T13:38:14;26.28;49.78
72114;SHT31;59989;46.220;19.888;2023-08-07T13:41:17;26.14;47.39
72114;SHT31;59989;46.220;19.888;2023-08-07T13:44:20;27.27;46.66
72114;SHT31;59989;46.220;19.888;2023-08-07T13:47:24;26.08;46.42
72114;SHT31;59989;46.220;19.888;2023-08-07T13:50:28;26.89;46.01
72114;SHT31;59989;46.220;19.888;2023-08-07T13:53:30;27.00;44.70
72114;SHT31;59989;46.220;19.888;2023-08-07T13:56:33;26.72;43.57
72114;SHT31;59989;46.220;19.888;2023-08-07T13:59:35;27.33;42.73
72114;SHT31;59989;46.220;19.888;2023-08-07T14:02:38;26.99;43.18
72114;SHT31;59989;46.220;19.888;2023-08-07T14:05:41;26.95;43.64
72114;SHT31;59989;46.220;19.888;2023-08-07T14:08:43;27.49;41.85
72114;SHT31;59989;46.220;19.888;2023-08-07T14:11:46;28.26;41.23
72114;SHT31;59989;46.220;19.888;2023-08-07T14:14:49;28.77;39.78
72114;SHT31;59989;46.220;19.888;2023-08-07T14:17:52;28.29;40.84
72114;SHT31;59989;46.220;19.888;2023-08-07T14:20:55;26.93;41.46
72114;SHT31;59989;46.220;19.888;2023-08-07T14:24:05;27.58;40.94
72114;SHT31;59989;46.220;19.888;2023-08-07T14:27:07;29.03;39.12
72114;SHT31;59989;46.220;19.888;2023-08-07T14:30:11;28.12;39.13
72114;SHT31;59989;46.220;19.888;2023-08-07T14:33:14;28.39;39.98
72114;SHT31;59989;46.220;19.888;2023-08-07T14:36:17;27.50;41.35
72114;SHT31;59989;46.220;19.888;2023-08-07T14:39:19;28.52;39.69
72114;SHT31;59989;46.220;19.888;2023-08-07T14:42:25;28.56;39.32
72114;SHT31;59989;46.220;19.888;2023-08-07T14:45:28;27.88;40.67
72114;SHT31;59989;46.220;19.888;2023-08-07T14:48:31;27.67;41.13
72114;SHT31;59989;46.220;19.888;2023-08-07T14:51:33;27.36;40.39
72114;SHT31;59989;46.220;19.888;2023-08-07T14:54:36;27.07;40.34
72114;SHT31;59989;46.220;19.888;2023-08-07T14:57:38;28.26;39.22
72114;SHT31;59989;46.220;19.888;2023-08-07T15:00:41;27.49;37.73
72114;SHT31;59989;46.220;19.888;2023-08-07T15:03:44;26.67;38.94
72114;SHT31;59989;46.220;19.888;2023-08-07T15:06:47;26.89;38.56
72114;SHT31;59989;46.220;19.888;2023-08-07T15:09:50;27.43;38.30
72114;SHT31;59989;46.220;19.888;2023-08-07T15:12:54;26.36;39.55
72114;SHT31;59989;46.220;19.888;2023-08-07T15:15:58;26.62;39.51
72114;SHT31;59989;46.220;19.888;2023-08-07T15:19:01;26.44;39.15
72114;SHT31;59989;46.220;19.888;2023-08-07T15:22:04;27.72;38.03
72114;SHT31;59989;46.220;19.888;2023-08-07T15:25:07;28.66;36.75
72114;SHT31;59989;46.220;19.888;2023-08-07T15:28:10;28.08;37.22
72114;SHT31;59989;46.220;19.888;2023-08-07T15:31:13;28.36;36.82
72114;SHT31;59989;46.220;19.888;2023-08-07T15:34:15;27.26;38.67
72114;SHT31;59989;46.220;19.888;2023-08-07T15:37:18;26.62;39.90
72114;SHT31;59989;46.220;19.888;2023-08-07T15:40:20;27.29;39.03
72114;SHT31;59989;46.220;19.888;2023-08-07T15:43:23;26.51;39.91
72114;SHT31;59989;46.220;19.888;2023-08-07T15:46:26;26.54;39.22
72114;SHT31;59989;46.220;19.888;2023-08-07T15:49:29;25.59;40.90
72114;SHT31;59989;46.220;19.888;2023-08-07T15:52:31;25.49;40.88
72114;SHT31;59989;46.220;19.888;2023-08-07T15:55:34;24.46;42.36
72114;SHT31;59989;46.220;19.888;2023-08-07T15:58:40;22.87;46.03
72114;SHT31;59989;46.220;19.888;2023-08-07T16:01:42;21.62;49.12
72114;SHT31;59989;46.220;19.888;2023-08-07T16:04:45;21.04;50.82
72114;SHT31;59989;46.220;19.888;2023-08-07T16:07:47;20.55;52.15
72114;SHT31;59989;46.220;19.888;2023-08-07T16:10:52;20.39;54.14
72114;SHT31;59989;46.220;19.888;2023-08-07T16:13:55;20.38;55.07
72114;SHT31;59989;46.220;19.888;2023-08-07T16:16:57;20.24;54.20
72114;SHT31;59989;46.220;19.888;2023-08-07T16:20:03;20.02;54.09
72114;SHT31;59989;46.220;19.888;2023-08-07T16:23:05;20.00;55.65
72114;SHT31;59989;46.220;19.888;2023-08-07T16:26:08;19.92;55.41
72114;SHT31;59989;46.220;19.888;2023-08-07T16:29:11;19.70;55.39
72114;SHT31;59989;46.220;19.888;2023-08-07T16:32:14;19.69;55.30
72114;SHT31;59989;46.220;19.888;2023-08-07T16:35:17;19.50;54.53
72114;SHT31;59989;46.220;19.888;2023-08-07T16:38:21;19.42;55.47
72114;SHT31;59989;46.220;19.888;2023-08-07T16:41:23;19.26;54.17
72114;SHT31;59989;46.220;19.888;2023-08-07T16:44:26;19.12;54.60
72114;SHT31;59989;46.220;19.888;2023-08-07T16:47:28;18.89;55.10
72114;SHT31;59989;46.220;19.888;2023-08-07T16:50:31;18.85;55.71
72114;SHT31;59989;46.220;19.888;2023-08-07T16:53:34;18.78;56.76
72114;SHT31;59989;46.220;19.888;2023-08-07T16:56:36;18.74;56.32
72114;SHT31;59989;46.220;19.888;2023-08-07T16:59:39;18.61;55.92
72114;SHT31;59989;46.220;19.888;2023-08-07T17:02:42;18.54;56.84
72114;SHT31;59989;46.220;19.888;2023-08-07T17:05:45;18.43;57.18
72114;SHT31;59989;46.220;19.888;2023-08-07T17:08:47;18.40;58.40
72114;SHT31;59989;46.220;19.888;2023-08-07T17:11:54;18.38;58.71
72114;SHT31;59989;46.220;19.888;2023-08-07T17:14:56;18.30;59.45
72114;SHT31;59989;46.220;19.888;2023-08-07T17:17:59;18.24;59.91
72114;SHT31;59989;46.220;19.888;2023-08-07T17:21:01;18.16;59.92
72114;SHT31;59989;46.220;19.888;2023-08-07T17:24:04;18.07;60.78
72114;SHT31;59989;46.220;19.888;2023-08-07T17:27:07;17.95;61.30
72114;SHT31;59989;46.220;19.888;2023-08-07T17:30:09;17.78;61.26
72114;SHT31;59989;46.220;19.888;2023-08-07T17:33:12;17.65;61.64
72114;SHT31;59989;46.220;19.888;2023-08-07T17:36:15;17.61;62.19
72114;SHT31;59989;46.220;19.888;2023-08-07T17:39:17;17.51;62.53
72114;SHT31;59989;46.220;19.888;2023-08-07T17:42:20;17.47;63.59
72114;SHT31;59989;46.220;19.888;2023-08-07T17:45:22;17.37;63.20
72114;SHT31;59989;46.220;19.888;2023-08-07T17:48:25;17.27;63.40
72114;SHT31;59989;46.220;19.888;2023-08-07T17:51:28;17.17;64.31
72114;SHT31;59989;46.220;19.888;2023-08-07T17:54:31;17.13;64.12
72114;SHT31;59989;46.220;19.888;2023-08-07T17:57:34;17.06;64.79
72114;SHT31;59989;46.220;19.888;2023-08-07T18:00:36;16.97;65.74
72114;SHT31;59989;46.220;19.888;2023-08-07T18:03:39;16.93;66.72
72114;SHT31;59989;46.220;19.888;2023-08-07T18:06:41;16.83;67.23
72114;SHT31;59989;46.220;19.888;2023-08-07T18:09:44;16.76;66.99
72114;SHT31;59989;46.220;19.888;2023-08-07T18:12:46;16.73;67.50
72114;SHT31;59989;46.220;19.888;2023-08-07T18:15:49;16.63;67.39
72114;SHT31;59989;46.220;19.888;2023-08-07T18:18:51;16.56;67.80
72114;SHT31;59989;46.220;19.888;2023-08-07T18:21:56;16.55;67.10
72114;SHT31;59989;46.220;19.888;2023-08-07T18:24:58;16.48;67.43
72114;SHT31;59989;46.220;19.888;2023-08-07T18:28:01;16.44;67.43
72114;SHT31;59989;46.220;19.888;2023-08-07T18:31:03;16.38;67.71
72114;SHT31;59989;46.220;19.888;2023-08-07T18:34:06;16.32;67.95
72114;SHT31;59989;46.220;19.888;2023-08-07T18:37:09;16.25;68.45
72114;SHT31;59989;46.220;19.888;2023-08-07T18:40:11;16.20;68.20
72114;SHT31;59989;46.220;19.888;2023-08-07T18:43:14;16.12;68.59
72114;SHT31;59989;46.220;19.888;2023-08-07T18:46:17;16.11;68.44
72114;SHT31;59989;46.220;19.888;2023-08-07T18:49:19;16.05;69.30
72114;SHT31;59989;46.220;19.888;2023-08-07T18:52:23;16.00;69.53
72114;SHT31;59989;46.220;19.888;2023-08-07T18:55:26;15.97;70.75
72114;SHT31;59989;46.220;19.888;2023-08-07T18:58:28;15.86;70.95
72114;SHT31;59989;46.220;19.888;2023-08-07T19:01:31;15.84;71.68
72114;SHT31;59989;46.220;19.888;2023-08-07T19:04:34;15.80;71.51
72114;SHT31;59989;46.220;19.888;2023-08-07T19:07:37;15.73;71.76